createdAt,value
2019-01-29T00:01:53.782Z,2.70
2019-01-29T00:04:03.799Z,2.70
2019-01-29T00:06:14.223Z,2.70
2019-01-29T00:08:21.654Z,2.70
2019-01-29T00:10:32.263Z,2.60
2019-01-29T00:12:39.827Z,2.60
2019-01-29T00:14:48.727Z,2.60
2019-01-29T00:16:57.675Z,2.60
2019-01-29T00:19:09.142Z,2.50
2019-01-29T00:21:17.941Z,2.50
2019-01-29T00:23:28.271Z,2.50
2019-01-29T00:25:38.198Z,2.60
2019-01-29T00:27:51.126Z,2.60
2019-01-29T00:30:02.934Z,2.50
2019-01-29T00:32:11.862Z,2.50
2019-01-29T00:34:21.146Z,2.50
2019-01-29T00:36:32.070Z,2.50
2019-01-29T00:38:41.946Z,2.50
2019-01-29T00:40:50.839Z,2.60
2019-01-29T00:42:59.324Z,2.50
2019-01-29T00:45:09.017Z,2.50
2019-01-29T00:47:21.872Z,2.50
2019-01-29T00:49:30.791Z,2.50
2019-01-29T00:51:38.758Z,2.40
2019-01-29T00:53:47.155Z,2.40
2019-01-29T00:55:55.986Z,2.40
2019-01-29T00:58:08.898Z,2.40
2019-01-29T01:00:21.551Z,2.40
2019-01-29T01:02:32.360Z,2.40
2019-01-29T01:04:40.175Z,2.40
2019-01-29T01:06:49.238Z,2.40
2019-01-29T01:08:58.127Z,2.30
2019-01-29T01:11:10.282Z,2.40
2019-01-29T01:13:21.259Z,2.30
2019-01-29T01:15:30.662Z,2.40
2019-01-29T01:17:38.514Z,2.40
2019-01-29T01:19:46.966Z,2.30
2019-01-29T01:21:54.086Z,2.30
2019-01-29T01:24:03.515Z,2.30
2019-01-29T01:26:13.737Z,2.30
2019-01-29T01:28:23.183Z,2.30
2019-01-29T01:30:31.351Z,2.30
2019-01-29T01:32:41.095Z,2.40
2019-01-29T01:34:50.088Z,2.20
2019-01-29T01:36:59.578Z,2.30
2019-01-29T01:39:09.931Z,2.30
2019-01-29T01:41:17.242Z,2.30
2019-01-29T01:43:25.750Z,2.30
2019-01-29T01:45:35.118Z,2.30
2019-01-29T01:47:43.047Z,2.30
2019-01-29T01:49:51.482Z,2.30
2019-01-29T01:52:00.618Z,2.20
2019-01-29T01:54:08.915Z,2.30
2019-01-29T01:56:19.050Z,2.30
2019-01-29T01:58:26.598Z,2.30
2019-01-29T02:00:36.616Z,2.40
2019-01-29T02:02:45.564Z,2.40
2019-01-29T02:04:52.218Z,2.50
2019-01-29T02:07:01.126Z,2.40
2019-01-29T02:09:13.234Z,2.30
2019-01-29T02:11:21.638Z,2.40
2019-01-29T02:13:33.039Z,2.40
2019-01-29T02:15:40.846Z,2.30
2019-01-29T02:17:48.858Z,2.30
2019-01-29T02:19:59.624Z,2.30
2019-01-29T02:22:11.069Z,2.30
2019-01-29T02:24:18.514Z,2.30
2019-01-29T02:26:28.326Z,2.30
2019-01-29T02:28:37.702Z,2.30
2019-01-29T02:30:47.914Z,2.30
2019-01-29T02:33:01.921Z,2.30
2019-01-29T02:35:11.093Z,2.30
2019-01-29T02:37:19.974Z,2.30
2019-01-29T02:39:29.991Z,2.20
2019-01-29T02:41:39.739Z,2.30
2019-01-29T02:43:49.088Z,2.30
2019-01-29T02:46:01.174Z,2.30
2019-01-29T02:48:09.651Z,2.30
2019-01-29T02:50:20.137Z,2.30
2019-01-29T02:52:28.471Z,2.30
2019-01-29T02:54:37.095Z,2.30
2019-01-29T02:56:46.920Z,2.30
2019-01-29T02:58:57.781Z,2.30
2019-01-29T03:01:05.607Z,2.30
2019-01-29T03:03:14.918Z,2.30
2019-01-29T03:05:24.958Z,2.20
2019-01-29T03:07:33.154Z,2.20
2019-01-29T03:09:40.670Z,2.20
2019-01-29T03:11:50.990Z,2.30
2019-01-29T03:14:02.763Z,2.30
2019-01-29T03:16:10.662Z,2.30
2019-01-29T03:18:19.315Z,2.30
2019-01-29T03:20:29.607Z,2.30
2019-01-29T03:22:39.255Z,2.30
2019-01-29T03:24:47.751Z,2.30
2019-01-29T03:26:57.755Z,2.30
2019-01-29T03:29:07.540Z,2.30
2019-01-29T03:31:14.874Z,2.30
2019-01-29T03:33:25.634Z,2.30
2019-01-29T03:35:34.438Z,2.40
2019-01-29T03:37:42.858Z,2.30
2019-01-29T03:39:51.785Z,2.30
2019-01-29T03:42:07.666Z,2.30
2019-01-29T03:44:14.350Z,2.30
2019-01-29T03:46:20.210Z,2.30
2019-01-29T03:48:29.898Z,2.30
2019-01-29T03:50:39.782Z,2.20
2019-01-29T03:52:51.574Z,2.20
2019-01-29T03:55:00.263Z,2.20
2019-01-29T03:57:08.306Z,2.10
2019-01-29T03:59:19.378Z,2.10
2019-01-29T04:01:28.570Z,2.20
2019-01-29T04:03:34.534Z,2.10
2019-01-29T04:05:40.398Z,2.10
2019-01-29T04:07:50.692Z,2.20
2019-01-29T04:10:01.483Z,2.10
2019-01-29T04:12:08.791Z,2.20
2019-01-29T04:14:17.332Z,2.10
2019-01-29T04:16:26.694Z,2.00
2019-01-29T04:18:35.735Z,2.10
2019-01-29T04:20:46.742Z,2.10
2019-01-29T04:22:54.484Z,2.10
2019-01-29T04:25:03.504Z,2.10
2019-01-29T04:27:13.466Z,2.10
2019-01-29T04:29:22.764Z,2.20
2019-01-29T04:31:31.291Z,2.10
2019-01-29T04:33:39.607Z,2.10
2019-01-29T04:35:49.371Z,2.10
2019-01-29T04:37:59.634Z,2.10
2019-01-29T04:40:09.751Z,2.10
2019-01-29T04:42:19.113Z,2.00
2019-01-29T04:44:27.883Z,2.00
2019-01-29T04:46:37.807Z,2.00
2019-01-29T04:48:48.535Z,2.00
2019-01-29T04:50:56.498Z,2.00
2019-01-29T04:53:06.265Z,2.10
2019-01-29T04:55:16.361Z,2.10
2019-01-29T04:57:25.256Z,2.00
2019-01-29T04:59:34.194Z,1.90
2019-01-29T05:01:43.464Z,2.00
2019-01-29T05:03:52.618Z,2.00
2019-01-29T05:06:01.836Z,2.00
2019-01-29T05:08:11.786Z,2.10
2019-01-29T05:10:21.955Z,2.00
2019-01-29T05:12:29.576Z,2.00
2019-01-29T05:14:41.422Z,2.00
2019-01-29T05:16:52.395Z,2.00
2019-01-29T05:19:02.086Z,2.00
2019-01-29T05:21:11.446Z,2.00
2019-01-29T05:23:23.242Z,2.00
2019-01-29T05:25:30.642Z,2.00
2019-01-29T05:27:40.646Z,1.90
2019-01-29T05:29:54.870Z,2.00
2019-01-29T05:32:02.652Z,2.00
2019-01-29T05:34:09.850Z,2.00
2019-01-29T05:36:16.893Z,2.00
2019-01-29T05:38:27.802Z,2.00
2019-01-29T05:40:38.679Z,2.00
2019-01-29T05:42:47.002Z,2.10
2019-01-29T05:45:14.502Z,2.10
2019-01-29T05:47:27.875Z,2.00
2019-01-29T05:49:35.620Z,2.00
2019-01-29T05:51:42.350Z,1.90
2019-01-29T05:53:55.169Z,1.90
2019-01-29T05:56:12.726Z,1.80
2019-01-29T05:58:26.630Z,1.80
2019-01-29T06:00:37.030Z,1.80
2019-01-29T06:02:45.250Z,1.90
2019-01-29T06:04:54.134Z,1.80
2019-01-29T06:07:08.067Z,1.80
2019-01-29T06:09:19.227Z,1.70
2019-01-29T06:11:28.555Z,1.70
2019-01-29T06:13:37.558Z,1.80
2019-01-29T06:15:45.170Z,1.80
2019-01-29T06:17:55.146Z,1.80
2019-01-29T06:20:05.207Z,1.80
2019-01-29T06:22:17.211Z,1.80
2019-01-29T06:24:26.111Z,1.80
2019-01-29T06:26:34.443Z,1.70
2019-01-29T06:28:41.870Z,1.80
2019-01-29T06:30:46.717Z,1.80
2019-01-29T06:32:54.611Z,1.70
2019-01-29T06:35:04.586Z,1.80
2019-01-29T06:37:17.213Z,1.70
2019-01-29T06:39:27.147Z,1.80
2019-01-29T06:41:36.956Z,1.80
2019-01-29T06:43:45.160Z,1.80
2019-01-29T06:45:53.522Z,1.80
2019-01-29T06:48:01.529Z,1.80
2019-01-29T06:50:10.766Z,1.80
2019-01-29T06:52:20.758Z,1.80
2019-01-29T06:54:35.226Z,1.70
2019-01-29T06:56:44.295Z,1.80
2019-01-29T06:58:51.744Z,1.80
2019-01-29T07:01:00.710Z,1.70
2019-01-29T07:03:11.608Z,1.70
2019-01-29T07:05:21.069Z,1.70
2019-01-29T07:07:26.663Z,1.70
2019-01-29T07:09:35.467Z,1.80
2019-01-29T07:11:43.826Z,1.80
2019-01-29T07:13:53.607Z,1.70
2019-01-29T07:16:09.569Z,1.70
2019-01-29T07:18:39.454Z,1.80
2019-01-29T07:20:48.439Z,1.70
2019-01-29T07:22:55.579Z,1.80
2019-01-29T07:25:04.210Z,1.80
2019-01-29T07:27:12.074Z,1.80
2019-01-29T07:29:20.267Z,1.80
2019-01-29T07:31:28.487Z,1.70
2019-01-29T07:33:41.937Z,1.70
2019-01-29T07:35:54.303Z,1.70
2019-01-29T07:38:03.271Z,1.70
2019-01-29T07:40:12.775Z,1.70
2019-01-29T07:42:19.017Z,1.80
2019-01-29T07:44:23.839Z,1.80
2019-01-29T07:46:32.123Z,1.90
2019-01-29T07:48:38.590Z,1.90
2019-01-29T07:50:45.542Z,1.80
2019-01-29T07:52:54.517Z,1.80
2019-01-29T07:55:02.485Z,1.80
2019-01-29T07:57:09.778Z,1.90
2019-01-29T07:59:17.323Z,1.80
2019-01-29T08:01:26.695Z,1.80
2019-01-29T08:03:38.067Z,1.70
2019-01-29T08:05:45.470Z,1.70
2019-01-29T08:07:55.645Z,1.70
2019-01-29T08:10:04.563Z,1.70
2019-01-29T08:12:14.006Z,1.70
2019-01-29T08:14:21.926Z,1.70
2019-01-29T08:16:33.427Z,1.70
2019-01-29T08:18:44.102Z,1.80
2019-01-29T08:20:53.975Z,1.90
2019-01-29T08:23:02.478Z,1.90
2019-01-29T08:25:12.329Z,1.90
2019-01-29T08:27:22.170Z,1.90
2019-01-29T08:29:32.710Z,1.90
2019-01-29T08:31:41.702Z,1.90
2019-01-29T08:33:49.211Z,1.90
2019-01-29T08:35:59.494Z,1.90
2019-01-29T08:38:07.015Z,1.80
2019-01-29T08:40:17.909Z,1.90
2019-01-29T08:42:29.063Z,1.80
2019-01-29T08:44:37.703Z,1.90
2019-01-29T08:46:47.540Z,1.90
2019-01-29T08:48:58.549Z,2.00
2019-01-29T08:51:07.666Z,1.90
2019-01-29T08:53:20.085Z,1.90
2019-01-29T08:55:29.016Z,2.00
2019-01-29T08:57:41.835Z,2.00
2019-01-29T08:59:51.068Z,2.00
2019-01-29T09:02:00.863Z,2.00
2019-01-29T09:04:11.013Z,2.00
2019-01-29T09:06:19.431Z,2.10
2019-01-29T09:08:33.095Z,2.20
2019-01-29T09:10:44.042Z,2.20
2019-01-29T09:12:54.918Z,2.10
2019-01-29T09:15:10.881Z,2.20
2019-01-29T09:17:21.815Z,2.20
2019-01-29T09:19:33.829Z,2.10
2019-01-29T09:21:41.858Z,2.10
2019-01-29T09:23:51.055Z,2.10
2019-01-29T09:26:02.000Z,2.20
2019-01-29T09:28:11.498Z,2.30
2019-01-29T09:30:21.942Z,2.30
2019-01-29T09:32:30.359Z,2.30
2019-01-29T09:34:42.236Z,2.30
2019-01-29T09:36:50.724Z,2.50
2019-01-29T09:39:01.670Z,2.30
2019-01-29T09:41:09.815Z,2.60
2019-01-29T09:48:07.927Z,2.60
2019-01-29T09:50:18.407Z,2.60
2019-01-29T09:52:26.612Z,3.00
2019-01-29T09:54:36.583Z,3.20
2019-01-29T09:56:46.525Z,3.30
2019-01-29T09:58:56.380Z,3.50
2019-01-29T10:01:05.314Z,3.60
2019-01-29T10:03:12.685Z,3.70
2019-01-29T10:05:20.989Z,3.60
2019-01-29T10:07:30.762Z,3.70
2019-01-29T10:09:41.143Z,3.80
2019-01-29T10:11:51.456Z,3.90
2019-01-29T10:14:01.255Z,3.80
2019-01-29T10:16:10.253Z,3.70
2019-01-29T10:18:22.199Z,3.60
2019-01-29T10:20:33.019Z,3.70
2019-01-29T10:22:49.313Z,3.70
2019-01-29T10:24:58.534Z,3.60
2019-01-29T10:27:08.859Z,3.70
2019-01-29T10:29:17.639Z,3.60
2019-01-29T10:31:28.914Z,3.60
2019-01-29T10:33:37.435Z,3.50
2019-01-29T10:35:48.359Z,3.70
2019-01-29T10:37:56.391Z,3.70
2019-01-29T10:40:05.814Z,3.90
2019-01-29T10:42:15.277Z,4.20
2019-01-29T10:44:21.550Z,4.20
2019-01-29T10:46:31.079Z,4.00
2019-01-29T10:48:50.992Z,3.90
2019-01-29T10:50:59.975Z,3.80
2019-01-29T10:53:11.271Z,3.80
2019-01-29T10:55:21.397Z,3.90
2019-01-29T10:57:30.526Z,3.90
2019-01-29T10:59:41.757Z,4.00
2019-01-29T11:01:53.838Z,3.70
2019-01-29T11:04:04.692Z,3.70
2019-01-29T11:06:15.384Z,3.60
2019-01-29T11:08:23.687Z,3.60
2019-01-29T11:10:35.362Z,3.60
2019-01-29T11:12:43.410Z,3.70
2019-01-29T11:14:57.177Z,3.70
2019-01-29T11:17:05.205Z,3.90
2019-01-29T11:19:14.319Z,3.80
2019-01-29T11:21:22.966Z,3.80
2019-01-29T11:23:34.541Z,3.90
2019-01-29T11:25:55.765Z,3.90
2019-01-29T11:27:59.165Z,4.00
2019-01-29T11:30:10.854Z,4.00
2019-01-29T11:32:20.495Z,4.20
2019-01-29T11:34:29.352Z,4.90
2019-01-29T11:36:38.105Z,4.70
2019-01-29T11:38:45.257Z,4.80
2019-01-29T11:40:50.934Z,5.00
2019-01-29T11:43:00.971Z,5.20
2019-01-29T11:45:14.718Z,5.30
2019-01-29T11:47:24.051Z,5.40
2019-01-29T11:49:35.828Z,5.20
2019-01-29T11:51:45.131Z,4.90
2019-01-29T11:53:53.570Z,5.10
2019-01-29T11:56:06.633Z,5.20
2019-01-29T11:58:21.636Z,5.20
2019-01-29T12:00:37.528Z,5.40
2019-01-29T12:02:46.631Z,5.40
2019-01-29T12:04:55.815Z,5.20
2019-01-29T12:07:05.135Z,4.90
2019-01-29T12:09:12.471Z,5.00
2019-01-29T12:11:21.671Z,4.80
2019-01-29T12:13:32.354Z,4.70
2019-01-29T12:15:42.212Z,4.90
2019-01-29T12:17:51.214Z,4.70
2019-01-29T12:20:01.676Z,4.70
2019-01-29T12:22:11.959Z,4.30
2019-01-29T12:24:18.878Z,4.40
2019-01-29T12:26:26.403Z,4.40
2019-01-29T12:28:34.822Z,4.30
2019-01-29T12:30:43.494Z,4.30
2019-01-29T12:32:53.681Z,4.50
2019-01-29T12:35:03.733Z,4.60
2019-01-29T12:37:12.831Z,4.60
2019-01-29T12:39:25.446Z,4.70
2019-01-29T12:41:36.568Z,5.00
2019-01-29T12:43:44.939Z,4.80
2019-01-29T12:45:53.777Z,4.90
2019-01-29T12:48:02.268Z,5.10
2019-01-29T12:50:11.470Z,5.20
2019-01-29T12:52:30.506Z,5.30
2019-01-29T12:54:40.463Z,5.30
2019-01-29T12:56:49.354Z,5.20
2019-01-29T12:58:57.268Z,5.00
2019-01-29T13:01:05.302Z,4.90
2019-01-29T13:03:15.368Z,5.00
2019-01-29T13:05:28.167Z,5.00
2019-01-29T13:07:40.550Z,4.90
2019-01-29T13:09:48.813Z,5.10
2019-01-29T13:11:57.962Z,5.40
2019-01-29T13:14:08.609Z,5.70
2019-01-29T13:16:18.535Z,5.80
2019-01-29T13:18:26.450Z,5.90
2019-01-29T13:20:31.654Z,6.00
2019-01-29T13:22:41.474Z,6.00
2019-01-29T13:24:50.290Z,6.10
2019-01-29T13:26:57.478Z,6.40
2019-01-29T13:29:07.764Z,6.60
2019-01-29T13:31:13.680Z,6.60
2019-01-29T13:33:19.514Z,6.70
2019-01-29T13:35:28.337Z,6.90
2019-01-29T13:37:40.222Z,7.00
2019-01-29T13:39:48.650Z,7.00
2019-01-29T13:41:57.984Z,7.20
2019-01-29T13:44:06.413Z,7.40
2019-01-29T13:46:15.950Z,7.80
2019-01-29T13:48:27.927Z,8.10
2019-01-29T13:50:40.163Z,8.50
2019-01-29T13:52:50.955Z,8.70
2019-01-29T13:55:02.023Z,8.70
2019-01-29T13:57:11.595Z,9.20
2019-01-29T13:59:22.343Z,9.50
2019-01-29T14:01:29.257Z,9.60
2019-01-29T14:03:35.408Z,9.60
2019-01-29T14:05:42.473Z,9.80
2019-01-29T14:07:51.848Z,10.20
2019-01-29T14:10:00.527Z,9.00
2019-01-29T14:12:10.669Z,8.10
2019-01-29T14:14:21.671Z,7.80
2019-01-29T14:16:29.160Z,7.40
2019-01-29T14:18:38.226Z,7.40
2019-01-29T14:20:52.342Z,7.50
2019-01-29T14:23:02.038Z,7.40
2019-01-29T14:25:09.522Z,7.10
2019-01-29T14:27:18.506Z,6.70
2019-01-29T14:29:26.301Z,6.50
2019-01-29T14:31:34.719Z,6.30
2019-01-29T14:33:47.878Z,6.10
2019-01-29T14:36:02.923Z,6.10
2019-01-29T14:38:52.839Z,6.00
2019-01-29T14:41:00.840Z,5.90
2019-01-29T14:43:09.838Z,5.80
2019-01-29T14:45:23.482Z,5.70
2019-01-29T14:47:30.850Z,5.50
2019-01-29T14:49:39.902Z,5.40
2019-01-29T14:51:50.608Z,5.10
2019-01-29T14:53:58.357Z,5.10
2019-01-29T14:56:06.550Z,5.20
2019-01-29T14:58:16.486Z,5.20
2019-01-29T15:00:27.860Z,4.90
2019-01-29T15:02:37.695Z,4.80
2019-01-29T15:04:45.159Z,4.80
2019-01-29T15:06:52.195Z,4.70
2019-01-29T15:09:00.294Z,4.80
2019-01-29T15:11:09.275Z,4.70
2019-01-29T15:13:18.367Z,4.70
2019-01-29T15:15:26.330Z,4.70
2019-01-29T15:17:47.739Z,4.70
2019-01-29T15:19:55.597Z,4.70
2019-01-29T15:22:04.499Z,4.70
2019-01-29T15:24:14.315Z,4.60
2019-01-29T15:26:24.634Z,4.50
2019-01-29T15:28:33.654Z,4.50
2019-01-29T15:30:41.842Z,4.50
2019-01-29T15:32:52.243Z,4.60
2019-01-29T15:35:00.923Z,4.60
2019-01-29T15:37:11.482Z,4.60
2019-01-29T15:39:21.350Z,4.50
2019-01-29T15:41:30.797Z,4.50
2019-01-29T15:43:40.070Z,4.50
2019-01-29T15:45:49.990Z,4.60
2019-01-29T15:47:58.422Z,4.50
2019-01-29T15:50:08.547Z,4.50
2019-01-29T15:52:17.254Z,4.40
2019-01-29T15:54:27.105Z,4.40
2019-01-29T15:56:37.350Z,4.40
2019-01-29T15:58:46.290Z,4.30
2019-01-29T16:00:55.511Z,4.30
2019-01-29T16:03:04.639Z,4.30
2019-01-29T16:05:14.675Z,4.40
2019-01-29T16:07:25.585Z,4.50
2019-01-29T16:09:33.073Z,4.50
2019-01-29T16:11:39.549Z,4.50
2019-01-29T16:13:45.358Z,4.50
2019-01-29T16:15:50.803Z,4.50
2019-01-29T16:17:58.438Z,4.50
2019-01-29T16:20:08.455Z,4.60
2019-01-29T16:22:19.454Z,4.70
2019-01-29T16:24:28.519Z,4.60
2019-01-29T16:26:37.515Z,4.60
2019-01-29T16:28:48.674Z,4.60
2019-01-29T16:30:57.898Z,4.70
2019-01-29T16:33:10.391Z,4.60
2019-01-29T16:35:25.427Z,4.70
2019-01-29T16:37:34.362Z,4.70
2019-01-29T16:39:43.494Z,4.70
2019-01-29T16:41:54.695Z,4.70
2019-01-29T16:44:06.918Z,4.60
2019-01-29T16:46:13.791Z,4.50
2019-01-29T16:48:22.826Z,4.50
2019-01-29T16:50:31.116Z,4.50
2019-01-29T16:52:41.147Z,4.40
2019-01-29T16:54:51.363Z,4.50
2019-01-29T16:57:02.663Z,4.50
2019-01-29T16:59:12.584Z,4.50
2019-01-29T17:01:23.989Z,4.50
2019-01-29T17:03:34.919Z,4.60
2019-01-29T17:05:45.014Z,4.60
2019-01-29T17:07:54.886Z,4.50
2019-01-29T17:10:06.962Z,4.50
2019-01-29T17:12:24.758Z,4.60
2019-01-29T17:14:33.546Z,4.50
2019-01-29T17:16:45.862Z,4.50
2019-01-29T17:18:56.944Z,4.50
2019-01-29T17:21:04.338Z,4.50
2019-01-29T17:23:13.146Z,4.40
2019-01-29T17:25:20.475Z,4.30
2019-01-29T17:27:30.854Z,4.30
2019-01-29T17:29:42.043Z,4.30
2019-01-29T17:31:49.944Z,4.30
2019-01-29T17:34:01.255Z,4.20
2019-01-29T17:36:11.190Z,4.30
2019-01-29T17:38:25.202Z,4.20
2019-01-29T17:40:34.066Z,4.20
2019-01-29T17:42:42.583Z,4.20
2019-01-29T17:44:49.140Z,4.20
2019-01-29T17:46:58.098Z,4.20
2019-01-29T17:49:09.124Z,4.20
2019-01-29T17:51:22.456Z,4.20
2019-01-29T17:53:31.494Z,4.20
2019-01-29T17:55:42.155Z,4.20
2019-01-29T17:57:50.650Z,4.30
2019-01-29T18:00:00.275Z,4.40
2019-01-29T18:02:23.707Z,4.40
2019-01-29T18:04:32.571Z,4.40
2019-01-29T18:06:40.120Z,4.50
2019-01-29T18:08:49.813Z,4.40
2019-01-29T18:11:00.232Z,4.40
2019-01-29T18:13:09.191Z,4.50
2019-01-29T18:15:21.430Z,4.50
2019-01-29T18:17:29.546Z,4.40
2019-01-29T18:19:36.794Z,4.40
2019-01-29T18:21:42.570Z,4.40
2019-01-29T18:23:48.394Z,4.20
2019-01-29T18:25:53.722Z,4.10
2019-01-29T18:28:01.393Z,4.10
2019-01-29T18:30:10.295Z,3.90
2019-01-29T18:32:19.258Z,3.90
2019-01-29T18:34:28.103Z,4.20
2019-01-29T18:36:37.333Z,3.80
2019-01-29T18:38:49.780Z,3.80
2019-01-29T18:40:58.998Z,3.80
2019-01-29T18:43:07.750Z,3.80
2019-01-29T18:45:20.451Z,3.80
2019-01-29T18:47:27.866Z,3.80
2019-01-29T18:49:34.438Z,3.90
2019-01-29T18:51:44.139Z,3.80
2019-01-29T18:53:54.694Z,3.80
2019-01-29T18:56:03.572Z,3.80
2019-01-29T18:58:15.228Z,3.80
2019-01-29T19:00:25.590Z,3.80
2019-01-29T19:02:35.766Z,3.90
2019-01-29T19:04:46.630Z,3.90
2019-01-29T19:06:55.964Z,3.90
2019-01-29T19:09:10.644Z,3.70
2019-01-29T19:11:19.890Z,3.70
2019-01-29T19:13:27.866Z,3.70
2019-01-29T19:15:35.703Z,3.80
2019-01-29T19:17:45.895Z,3.70
2019-01-29T19:19:52.777Z,3.80
2019-01-29T19:22:02.546Z,3.80
2019-01-29T19:24:13.699Z,3.80
2019-01-29T19:26:21.654Z,3.80
2019-01-29T19:28:31.602Z,3.80
2019-01-29T19:30:41.834Z,3.80
2019-01-29T19:32:50.774Z,3.80
2019-01-29T19:35:03.497Z,3.80
2019-01-29T19:37:14.711Z,3.80
2019-01-29T19:39:27.271Z,3.80
2019-01-29T19:41:35.467Z,3.80
2019-01-29T19:43:43.526Z,3.70
2019-01-29T19:45:55.276Z,3.70
2019-01-29T19:48:10.502Z,3.70
2019-01-29T19:50:26.417Z,3.70
2019-01-29T19:52:37.471Z,3.70
2019-01-29T19:54:45.306Z,3.70
2019-01-29T19:56:54.745Z,3.70
2019-01-29T19:59:07.494Z,3.70
2019-01-29T20:01:18.962Z,3.70
2019-01-29T20:03:26.294Z,3.80
2019-01-29T20:05:32.426Z,3.80
2019-01-29T20:07:39.195Z,3.80
2019-01-29T20:09:46.013Z,3.80
2019-01-29T20:11:54.310Z,3.80
2019-01-29T20:14:06.218Z,3.80
2019-01-29T20:16:14.923Z,3.90
2019-01-29T20:18:24.900Z,3.80
2019-01-29T20:20:41.262Z,3.90
2019-01-29T20:22:50.055Z,3.70
2019-01-29T20:24:59.122Z,3.70
2019-01-29T20:27:11.756Z,3.80
2019-01-29T20:29:20.646Z,3.80
2019-01-29T20:31:28.147Z,3.70
2019-01-29T20:33:40.880Z,3.80
2019-01-29T20:35:49.783Z,3.80
2019-01-29T20:37:58.319Z,3.70
2019-01-29T20:40:06.625Z,3.70
2019-01-29T20:42:20.862Z,3.70
2019-01-29T20:44:32.136Z,3.70
2019-01-29T20:46:43.622Z,3.80
2019-01-29T20:48:55.937Z,3.80
2019-01-29T20:51:08.609Z,3.90
2019-01-29T20:53:23.783Z,3.80
2019-01-29T20:55:35.097Z,3.80
2019-01-29T20:57:52.188Z,3.80
2019-01-29T21:00:00.916Z,3.80
2019-01-29T21:02:11.138Z,3.80
2019-01-29T21:04:22.120Z,3.80
2019-01-29T21:06:31.004Z,3.70
2019-01-29T21:08:38.410Z,3.70
2019-01-29T21:10:45.823Z,3.70
2019-01-29T21:12:53.635Z,3.60
2019-01-29T21:15:02.248Z,3.70
2019-01-29T21:17:10.070Z,3.60
2019-01-29T21:19:19.150Z,3.60
2019-01-29T21:21:28.392Z,3.60
2019-01-29T21:23:38.298Z,3.60
2019-01-29T21:25:50.354Z,3.60
2019-01-29T21:28:00.455Z,3.60
2019-01-29T21:30:10.454Z,3.60
2019-01-29T21:32:21.094Z,3.50
2019-01-29T21:34:29.867Z,3.50
2019-01-29T21:36:39.206Z,3.50
2019-01-29T21:38:46.977Z,3.50
2019-01-29T21:40:52.730Z,3.60
2019-01-29T21:43:04.363Z,3.50
2019-01-29T21:45:13.567Z,3.60
2019-01-29T21:47:23.570Z,3.60
2019-01-29T21:49:32.382Z,3.60
2019-01-29T21:51:43.325Z,3.60
2019-01-29T21:53:53.254Z,3.60
2019-01-29T21:56:01.319Z,3.60
2019-01-29T21:58:10.835Z,3.60
2019-01-29T22:00:26.575Z,3.50
2019-01-29T22:02:36.459Z,3.60
2019-01-29T22:04:48.297Z,3.60
2019-01-29T22:07:17.641Z,3.60
2019-01-29T22:09:26.428Z,3.50
2019-01-29T22:11:35.178Z,3.60
2019-01-29T22:13:43.659Z,3.60
2019-01-29T22:15:52.586Z,3.50
2019-01-29T22:18:00.883Z,3.50
2019-01-29T22:20:11.302Z,3.50
2019-01-29T22:22:19.402Z,3.50
2019-01-29T22:24:27.875Z,3.50
2019-01-29T22:26:36.694Z,3.50
2019-01-29T22:28:46.666Z,3.50
2019-01-29T22:30:58.038Z,3.50
2019-01-29T22:33:10.367Z,3.40
2019-01-29T22:35:17.818Z,3.40
2019-01-29T22:37:26.923Z,3.40
2019-01-29T22:39:35.218Z,3.40
2019-01-29T22:41:42.475Z,3.40
2019-01-29T22:43:51.086Z,3.40
2019-01-29T22:46:02.891Z,3.40
2019-01-29T22:48:12.313Z,3.30
2019-01-29T22:50:22.057Z,3.30
2019-01-29T22:52:31.943Z,3.40
2019-01-29T22:54:40.202Z,3.30
2019-01-29T22:56:49.171Z,3.30
2019-01-29T22:58:59.090Z,3.30
2019-01-29T23:01:37.975Z,3.40
2019-01-29T23:04:00.554Z,3.40
2019-01-29T23:06:54.368Z,3.40
2019-01-29T23:09:01.727Z,3.40
2019-01-29T23:11:07.978Z,3.30
2019-01-29T23:13:17.496Z,3.40
2019-01-29T23:15:26.584Z,3.40
2019-01-29T23:17:34.892Z,3.40
2019-01-29T23:19:46.209Z,3.40
2019-01-29T23:21:56.166Z,3.40
2019-01-29T23:24:04.442Z,3.50
2019-01-29T23:26:13.267Z,3.50
2019-01-29T23:28:24.247Z,3.40
2019-01-29T23:30:36.970Z,3.40
2019-01-29T23:32:45.743Z,3.40
2019-01-29T23:34:54.022Z,3.40
2019-01-29T23:37:02.396Z,3.40
2019-01-29T23:39:12.603Z,3.40
2019-01-29T23:41:22.642Z,3.40
2019-01-29T23:43:32.968Z,3.40
2019-01-29T23:45:43.167Z,3.40
2019-01-29T23:47:52.411Z,3.50
2019-01-29T23:50:02.202Z,3.50
2019-01-29T23:52:10.706Z,3.50
2019-01-29T23:54:19.724Z,3.50
2019-01-29T23:56:32.838Z,3.50
2019-01-29T23:58:40.789Z,3.50
